createdAt,value
2017-09-17T00:01:31.957Z,100157
2017-09-17T00:06:35.175Z,100157
2017-09-17T00:11:38.371Z,100152
2017-09-17T00:16:41.577Z,100145
2017-09-17T00:21:44.912Z,100152
2017-09-17T00:26:48.134Z,100153
2017-09-17T00:31:51.355Z,100161
2017-09-17T00:36:55.293Z,100159
2017-09-17T00:41:58.517Z,100161
2017-09-17T00:47:02.072Z,100161
2017-09-17T00:52:05.236Z,100164
2017-09-17T00:57:08.864Z,100158
2017-09-17T01:02:12.058Z,100159
2017-09-17T01:07:15.272Z,100171
2017-09-17T01:12:18.612Z,100162
2017-09-17T01:17:21.845Z,100163
2017-09-17T01:22:25.800Z,100174
2017-09-17T01:27:29.001Z,100171
2017-09-17T01:32:32.191Z,100175
2017-09-17T01:37:36.185Z,100173
2017-09-17T01:42:39.391Z,100176
2017-09-17T01:47:42.596Z,100182
2017-09-17T01:52:45.762Z,100169
2017-09-17T01:57:48.981Z,100177
2017-09-17T02:02:52.299Z,100178
2017-09-17T02:07:55.525Z,100173
2017-09-17T02:12:58.726Z,100163
2017-09-17T02:18:01.966Z,100167
2017-09-17T02:23:05.928Z,100160
2017-09-17T02:28:09.147Z,100152
2017-09-17T02:33:12.354Z,100161
2017-09-17T02:38:15.567Z,100165
2017-09-17T02:43:18.801Z,100165
2017-09-17T02:48:21.998Z,100162
2017-09-17T02:53:25.437Z,100159
2017-09-17T02:58:28.672Z,100157
2017-09-17T03:03:31.891Z,100167
2017-09-17T03:08:35.089Z,100171
2017-09-17T03:13:38.303Z,100170
2017-09-17T03:18:41.498Z,100170
2017-09-17T03:23:44.712Z,100175
2017-09-17T03:28:47.928Z,100169
2017-09-17T03:33:51.137Z,100158
2017-09-17T03:38:54.332Z,100163
2017-09-17T03:43:57.550Z,100165
2017-09-17T03:49:00.813Z,100162
2017-09-17T03:54:04.769Z,100158
2017-09-17T03:59:08.012Z,100158
2017-09-17T04:04:11.234Z,100155
2017-09-17T04:09:15.201Z,100159
2017-09-17T04:14:18.485Z,100167
2017-09-17T04:19:22.595Z,100159
2017-09-17T04:24:26.579Z,100160
2017-09-17T04:29:29.824Z,100165
2017-09-17T04:34:33.033Z,100164
2017-09-17T04:39:36.193Z,100168
2017-09-17T04:44:39.421Z,100168
2017-09-17T04:49:42.642Z,100170
2017-09-17T04:54:45.862Z,100180
2017-09-17T04:59:49.848Z,100187
2017-09-17T05:04:54.336Z,100189
2017-09-17T05:09:58.311Z,100198
2017-09-17T05:15:01.526Z,100194
2017-09-17T05:20:04.770Z,100207
2017-09-17T05:25:08.742Z,100208
2017-09-17T05:30:11.960Z,100202
2017-09-17T05:35:15.168Z,100216
2017-09-17T05:40:18.374Z,100223
2017-09-17T05:45:21.603Z,100217
2017-09-17T05:50:24.794Z,100222
2017-09-17T05:55:27.990Z,100224
2017-09-17T06:00:31.222Z,100226
2017-09-17T06:05:34.421Z,100228
2017-09-17T06:10:37.824Z,100222
2017-09-17T06:15:41.054Z,100231
2017-09-17T06:20:45.037Z,100241
2017-09-17T06:25:48.267Z,100249
2017-09-17T06:30:51.485Z,100245
2017-09-17T06:35:54.678Z,100244
2017-09-17T06:40:57.890Z,100250
2017-09-17T06:46:01.101Z,100254
2017-09-17T06:51:04.333Z,100248
2017-09-17T06:56:07.551Z,100263
2017-09-17T07:01:10.817Z,100257
2017-09-17T07:06:14.048Z,100272
2017-09-17T07:11:18.026Z,100275
2017-09-17T07:16:21.249Z,100276
2017-09-17T07:21:24.511Z,100279
2017-09-17T07:26:27.737Z,100282
2017-09-17T07:31:30.928Z,100288
2017-09-17T07:36:34.169Z,100286
2017-09-17T07:41:37.404Z,100282
2017-09-17T07:46:41.398Z,100282
2017-09-17T07:51:44.701Z,100282
2017-09-17T07:56:47.907Z,100292
2017-09-17T08:01:51.123Z,100290
2017-09-17T08:06:54.317Z,100285
2017-09-17T08:11:57.520Z,100285
2017-09-17T08:17:00.727Z,100286
2017-09-17T08:22:03.956Z,100292
2017-09-17T08:27:07.378Z,100288
2017-09-17T08:32:10.597Z,100288
2017-09-17T08:37:14.613Z,100276
2017-09-17T08:42:17.858Z,100288
2017-09-17T08:47:21.082Z,100276
2017-09-17T08:52:24.292Z,100271
2017-09-17T08:57:27.525Z,100269
2017-09-17T09:02:30.738Z,100269
2017-09-17T09:07:33.997Z,100275
2017-09-17T09:12:37.228Z,100273
2017-09-17T09:17:40.417Z,100264
2017-09-17T09:22:43.696Z,100265
2017-09-17T09:27:47.676Z,100257
2017-09-17T09:32:50.912Z,100263
2017-09-17T09:37:54.938Z,100270
2017-09-17T09:42:58.161Z,100264
2017-09-17T09:48:02.159Z,100268
2017-09-17T09:53:05.596Z,100251
2017-09-17T09:58:10.856Z,100248
2017-09-17T10:03:14.240Z,100250
2017-09-17T10:08:17.536Z,100243
2017-09-17T10:13:20.770Z,100244
2017-09-17T10:18:24.858Z,100238
2017-09-17T10:23:28.081Z,100240
2017-09-17T10:28:31.249Z,100234
2017-09-17T10:33:34.477Z,100233
2017-09-17T10:38:37.691Z,100225
2017-09-17T10:43:41.112Z,100218
2017-09-17T10:48:44.344Z,100219
2017-09-17T10:53:48.354Z,100219
2017-09-17T10:58:51.672Z,100216
2017-09-17T11:03:55.669Z,100215
2017-09-17T11:08:58.926Z,100213
2017-09-17T11:14:02.138Z,100209
2017-09-17T11:19:05.421Z,100206
2017-09-17T11:24:09.418Z,100195
2017-09-17T11:29:12.622Z,100201
2017-09-17T11:34:15.841Z,100198
2017-09-17T11:39:19.079Z,100183
2017-09-17T11:44:23.048Z,100183
2017-09-17T11:49:26.261Z,100169
2017-09-17T11:54:29.473Z,100165
2017-09-17T11:59:32.677Z,100155
2017-09-17T12:04:35.962Z,100151
2017-09-17T12:09:39.194Z,100149
2017-09-17T12:14:42.485Z,100143
2017-09-17T12:19:45.731Z,100133
2017-09-17T12:24:48.953Z,100135
2017-09-17T12:29:53.022Z,100124
2017-09-17T12:34:56.262Z,100128
2017-09-17T12:39:59.520Z,100121
2017-09-17T12:45:02.799Z,100117
2017-09-17T12:50:06.810Z,100116
2017-09-17T12:55:10.085Z,100114
2017-09-17T13:00:13.287Z,100116
2017-09-17T13:05:16.510Z,100096
2017-09-17T13:10:19.794Z,100107
2017-09-17T13:15:23.017Z,100099
2017-09-17T13:20:26.236Z,100091
2017-09-17T13:25:29.521Z,100099
2017-09-17T13:30:32.733Z,100099
2017-09-17T13:35:35.958Z,100093
2017-09-17T13:40:39.188Z,100088
2017-09-17T13:45:42.414Z,100083
2017-09-17T13:50:46.433Z,100088
2017-09-17T13:55:50.428Z,100089
2017-09-17T14:00:53.654Z,100085
2017-09-17T14:05:59.422Z,100080
2017-09-17T14:11:02.645Z,100083
2017-09-17T14:16:06.633Z,100082
2017-09-17T14:21:09.858Z,100077
2017-09-17T14:26:13.074Z,100082
2017-09-17T14:31:17.200Z,100078
2017-09-17T14:36:20.437Z,100077
2017-09-17T14:41:23.681Z,100080
2017-09-17T14:46:26.884Z,100091
2017-09-17T14:51:30.147Z,100083
2017-09-17T14:56:33.381Z,100094
2017-09-17T15:01:37.135Z,100092
2017-09-17T15:06:40.848Z,100088
2017-09-17T15:11:44.063Z,100083
2017-09-17T15:16:47.335Z,100094
2017-09-17T15:21:50.557Z,100097
2017-09-17T15:26:53.777Z,100095
2017-09-17T15:31:57.009Z,100092
2017-09-17T15:37:01.111Z,100108
2017-09-17T15:42:04.389Z,100100
2017-09-17T15:47:07.655Z,100109
2017-09-17T15:52:10.872Z,100114
2017-09-17T15:57:15.008Z,100112
2017-09-17T16:02:19.001Z,100107
2017-09-17T16:07:22.251Z,100112
2017-09-17T16:12:26.377Z,100117
2017-09-17T16:17:29.656Z,100114
2017-09-17T16:22:33.061Z,100120
2017-09-17T16:27:36.737Z,100109
2017-09-17T16:32:40.797Z,100117
2017-09-17T16:37:44.133Z,100113
2017-09-17T16:42:48.128Z,100109
2017-09-17T16:47:51.439Z,100114
2017-09-17T16:52:54.651Z,100124
2017-09-17T16:57:57.975Z,100116
2017-09-17T17:03:01.969Z,100111
2017-09-17T17:08:05.239Z,100116
2017-09-17T17:13:08.496Z,100109
2017-09-17T17:18:11.734Z,100111
2017-09-17T17:23:15.783Z,100130
2017-09-17T17:28:19.053Z,100121
2017-09-17T17:33:23.082Z,100132
2017-09-17T17:38:27.208Z,100129
2017-09-17T17:43:31.194Z,100125
2017-09-17T17:48:34.432Z,100131
2017-09-17T17:53:37.698Z,100128
2017-09-17T17:58:40.928Z,100134
2017-09-17T18:03:44.197Z,100138
2017-09-17T18:08:47.416Z,100151
2017-09-17T18:13:50.785Z,100144
2017-09-17T18:18:54.926Z,100158
2017-09-17T18:23:58.320Z,100157
2017-09-17T18:29:02.304Z,100158
2017-09-17T18:34:05.546Z,100161
2017-09-17T18:39:08.771Z,100174
2017-09-17T18:44:12.740Z,100185
2017-09-17T18:49:15.967Z,100193
2017-09-17T18:54:19.203Z,100194
2017-09-17T18:59:23.266Z,100200
2017-09-17T19:04:26.466Z,100198
2017-09-17T19:09:29.786Z,100195
2017-09-17T19:14:33.032Z,100205
2017-09-17T19:19:36.231Z,100204
2017-09-17T19:24:39.463Z,100204
2017-09-17T19:29:42.733Z,100210
2017-09-17T19:34:45.945Z,100210
2017-09-17T19:39:49.174Z,100205
2017-09-17T19:44:53.218Z,100211
2017-09-17T19:49:57.206Z,100209
2017-09-17T19:55:00.429Z,100212
2017-09-17T20:00:03.641Z,100214
2017-09-17T20:05:07.619Z,100211
2017-09-17T20:10:10.868Z,100216
2017-09-17T20:15:14.107Z,100214
2017-09-17T20:20:17.330Z,100223
2017-09-17T20:25:20.527Z,100226
2017-09-17T20:30:23.868Z,100235
2017-09-17T20:35:27.054Z,100227
2017-09-17T20:40:30.261Z,100231
2017-09-17T20:45:33.463Z,100227
2017-09-17T20:50:36.785Z,100228
2017-09-17T20:55:39.993Z,100233
2017-09-17T21:00:43.215Z,100232
2017-09-17T21:05:46.431Z,100235
2017-09-17T21:10:49.661Z,100229
2017-09-17T21:15:53.633Z,100228
2017-09-17T21:20:56.851Z,100229
2017-09-17T21:26:00.054Z,100232
2017-09-17T21:31:03.249Z,100223
2017-09-17T21:36:06.448Z,100235
2017-09-17T21:41:09.670Z,100227
2017-09-17T21:46:12.939Z,100234
2017-09-17T21:51:16.170Z,100237
2017-09-17T21:56:19.380Z,100240
2017-09-17T22:01:22.593Z,100245
2017-09-17T22:06:25.799Z,100239
2017-09-17T22:11:29.023Z,100239
2017-09-17T22:16:32.213Z,100227
2017-09-17T22:21:35.412Z,100224
2017-09-17T22:26:38.661Z,100228
2017-09-17T22:31:41.892Z,100243
2017-09-17T22:36:45.972Z,100230
2017-09-17T22:41:49.252Z,100232
2017-09-17T22:46:52.461Z,100236
2017-09-17T22:51:55.786Z,100238
2017-09-17T22:56:59.005Z,100239
2017-09-17T23:02:02.212Z,100245
2017-09-17T23:07:05.427Z,100241
2017-09-17T23:12:08.637Z,100253
2017-09-17T23:17:11.841Z,100242
2017-09-17T23:22:15.106Z,100243
2017-09-17T23:27:18.311Z,100244
2017-09-17T23:32:21.514Z,100238
2017-09-17T23:37:24.719Z,100241
2017-09-17T23:42:27.918Z,100248
2017-09-17T23:47:31.919Z,100248
2017-09-17T23:52:35.882Z,100241
2017-09-17T23:57:39.141Z,100238
